createdAt,value
2022-10-09T00:00:09.926Z,102471.31
2022-10-09T00:02:40.180Z,102466.53
2022-10-09T00:05:09.008Z,102460.09
2022-10-09T00:07:37.012Z,102463.97
2022-10-09T00:10:05.997Z,102474.44
2022-10-09T00:12:35.419Z,102470.00
2022-10-09T00:15:03.581Z,102478.50
2022-10-09T00:17:31.441Z,102473.72
2022-10-09T00:19:59.392Z,102467.88
2022-10-09T00:22:27.258Z,102477.19
2022-10-09T00:24:55.278Z,102471.41
2022-10-09T00:27:23.871Z,102472.88
2022-10-09T00:29:53.264Z,102470.53
2022-10-09T00:32:21.317Z,102473.59
2022-10-09T00:34:49.203Z,102469.44
2022-10-09T00:37:17.167Z,102470.31
2022-10-09T00:39:45.323Z,102464.28
2022-10-09T00:42:14.215Z,102476.09
2022-10-09T00:44:54.304Z,102478.66
2022-10-09T00:47:28.870Z,102480.97
2022-10-09T00:50:04.092Z,102479.22
2022-10-09T00:52:33.865Z,102480.38
2022-10-09T00:55:03.737Z,102481.81
2022-10-09T00:57:33.724Z,102486.84
2022-10-09T01:00:06.626Z,102491.31
2022-10-09T01:02:35.021Z,102491.13
2022-10-09T01:05:03.089Z,102489.00
2022-10-09T01:07:40.067Z,102491.41
2022-10-09T01:10:23.134Z,102496.47
2022-10-09T01:13:00.741Z,102495.31
2022-10-09T01:15:34.827Z,102492.66
2022-10-09T01:18:07.985Z,102495.28
2022-10-09T01:20:45.930Z,102493.78
2022-10-09T01:23:38.793Z,102486.16
2022-10-09T01:26:16.392Z,102488.31
2022-10-09T01:28:51.197Z,102481.97
2022-10-09T01:31:21.447Z,102493.75
2022-10-09T01:33:50.635Z,102485.25
2022-10-09T01:36:20.440Z,102490.25
2022-10-09T01:38:49.536Z,102477.94
2022-10-09T01:41:18.187Z,102481.25
2022-10-09T01:43:47.416Z,102477.94
2022-10-09T01:46:20.796Z,102475.06
2022-10-09T01:48:52.127Z,102475.41
2022-10-09T01:51:26.936Z,102469.47
2022-10-09T01:53:58.717Z,102476.75
2022-10-09T01:56:32.146Z,102470.03
2022-10-09T01:59:06.213Z,102471.72
2022-10-09T02:01:37.586Z,102462.97
2022-10-09T02:04:09.457Z,102464.72
2022-10-09T02:06:40.545Z,102454.94
2022-10-09T02:09:12.973Z,102458.97
2022-10-09T02:11:43.155Z,102454.66
2022-10-09T02:14:13.144Z,102460.25
2022-10-09T02:16:43.376Z,102457.38
2022-10-09T02:19:18.246Z,102458.09
2022-10-09T02:21:54.488Z,102453.78
2022-10-09T02:24:24.031Z,102458.09
2022-10-09T02:26:54.434Z,102452.16
2022-10-09T02:29:23.826Z,102458.63
2022-10-09T02:31:52.283Z,102457.75
2022-10-09T02:34:21.292Z,102447.66
2022-10-09T02:36:50.695Z,102458.19
2022-10-09T02:39:19.052Z,102453.72
2022-10-09T02:41:47.707Z,102449.13
2022-10-09T02:44:15.945Z,102455.28
2022-10-09T02:46:45.269Z,102450.72
2022-10-09T02:49:13.374Z,102457.59
2022-10-09T02:51:41.504Z,102453.56
2022-10-09T02:54:10.557Z,102461.03
2022-10-09T02:56:39.310Z,102454.97
2022-10-09T02:59:07.638Z,102449.41
2022-10-09T03:01:36.099Z,102459.13
2022-10-09T03:04:06.175Z,102454.22
2022-10-09T03:06:34.177Z,102453.72
2022-10-09T03:09:02.422Z,102449.72
2022-10-09T03:11:30.429Z,102440.94
2022-10-09T03:13:58.446Z,102447.34
2022-10-09T03:16:27.926Z,102442.16
2022-10-09T03:18:56.331Z,102445.91
2022-10-09T03:21:27.711Z,102440.00
2022-10-09T03:23:56.437Z,102440.72
2022-10-09T03:26:26.168Z,102434.28
2022-10-09T03:28:55.789Z,102437.72
2022-10-09T03:31:50.477Z,102441.31
2022-10-09T03:34:15.317Z,102450.50
2022-10-09T03:36:44.757Z,102448.06
2022-10-09T03:39:12.956Z,102450.13
2022-10-09T03:41:40.829Z,102456.31
2022-10-09T03:44:08.918Z,102456.09
2022-10-09T03:46:36.874Z,102448.84
2022-10-09T03:49:04.875Z,102458.31
2022-10-09T03:51:33.062Z,102460.41
2022-10-09T03:54:02.538Z,102459.69
2022-10-09T03:56:30.426Z,102462.19
2022-10-09T03:58:58.469Z,102461.19
2022-10-09T04:01:26.410Z,102461.66
2022-10-09T04:03:54.394Z,102460.78
2022-10-09T04:06:22.250Z,102462.53
2022-10-09T04:08:50.201Z,102463.78
2022-10-09T04:11:19.499Z,102465.69
2022-10-09T04:13:47.404Z,102464.81
2022-10-09T04:16:15.425Z,102464.47
2022-10-09T04:18:44.923Z,102457.00
2022-10-09T04:21:13.484Z,102454.41
2022-10-09T04:23:41.531Z,102455.47
2022-10-09T04:26:12.702Z,102456.34
2022-10-09T04:28:42.086Z,102458.53
2022-10-09T04:31:10.567Z,102453.13
2022-10-09T04:33:38.690Z,102458.25
2022-10-09T04:36:06.956Z,102457.59
2022-10-09T04:38:35.015Z,102450.28
2022-10-09T04:41:05.433Z,102445.53
2022-10-09T04:43:34.675Z,102446.97
2022-10-09T04:46:06.962Z,102442.38
2022-10-09T04:48:39.215Z,102446.97
2022-10-09T04:51:07.905Z,102441.78
2022-10-09T04:53:36.576Z,102440.75
2022-10-09T04:56:05.288Z,102444.78
2022-10-09T04:58:35.310Z,102440.03
2022-10-09T05:01:08.704Z,102443.09
2022-10-09T05:03:37.580Z,102439.38
2022-10-09T05:06:08.279Z,102447.56
2022-10-09T05:08:37.267Z,102441.09
2022-10-09T05:11:11.705Z,102446.16
2022-10-09T05:13:45.448Z,102441.44
2022-10-09T05:16:19.224Z,102443.41
2022-10-09T05:18:50.927Z,102449.03
2022-10-09T05:21:21.115Z,102447.28
2022-10-09T05:23:50.893Z,102446.81
2022-10-09T05:26:21.247Z,102448.69
2022-10-09T05:28:50.906Z,102448.09
2022-10-09T05:31:24.014Z,102451.88
2022-10-09T05:33:53.944Z,102456.47
2022-10-09T05:36:24.700Z,102449.66
2022-10-09T05:38:53.532Z,102451.25
2022-10-09T05:41:31.800Z,102457.19
2022-10-09T05:44:04.924Z,102452.47
2022-10-09T05:46:37.119Z,102455.94
2022-10-09T05:49:29.109Z,102454.53
2022-10-09T05:52:10.953Z,102454.81
2022-10-09T05:54:52.645Z,102454.44
2022-10-09T05:57:35.398Z,102451.53
2022-10-09T06:00:21.952Z,102456.88
2022-10-09T06:06:03.777Z,102460.38
2022-10-09T06:08:54.315Z,102454.44
2022-10-09T06:11:38.306Z,102459.63
2022-10-09T06:14:16.374Z,102457.34
2022-10-09T06:16:52.668Z,102450.75
2022-10-09T06:19:34.833Z,102458.81
2022-10-09T06:22:09.512Z,102458.53
2022-10-09T06:24:40.420Z,102453.94
2022-10-09T06:27:11.048Z,102457.00
2022-10-09T06:29:39.413Z,102457.50
2022-10-09T06:32:07.360Z,102453.41
2022-10-09T06:34:35.300Z,102461.22
2022-10-09T06:37:03.219Z,102459.34
2022-10-09T06:39:32.858Z,102460.06
2022-10-09T06:42:00.884Z,102462.69
2022-10-09T06:44:41.782Z,102464.81
2022-10-09T06:47:10.090Z,102470.25
2022-10-09T06:49:38.140Z,102458.22
2022-10-09T06:52:06.067Z,102457.06
2022-10-09T06:54:35.713Z,102464.59
2022-10-09T06:57:03.877Z,102466.94
2022-10-09T06:59:32.224Z,102468.38
2022-10-09T07:02:00.551Z,102472.13
2022-10-09T07:04:28.769Z,102472.38
2022-10-09T07:06:57.090Z,102472.13
2022-10-09T07:09:25.336Z,102474.69
2022-10-09T07:11:54.785Z,102470.81
2022-10-09T07:14:22.731Z,102468.63
2022-10-09T07:16:52.638Z,102473.97
2022-10-09T07:19:21.768Z,102471.09
2022-10-09T07:21:51.093Z,102473.19
2022-10-09T07:24:20.764Z,102474.38
2022-10-09T07:26:49.627Z,102475.56
2022-10-09T07:29:20.083Z,102475.00
2022-10-09T07:31:50.012Z,102477.16
2022-10-09T07:34:18.115Z,102475.59
2022-10-09T07:36:46.104Z,102486.94
2022-10-09T07:39:14.254Z,102482.53
2022-10-09T07:41:43.500Z,102478.34
2022-10-09T07:44:12.176Z,102486.81
2022-10-09T07:46:42.198Z,102482.78
2022-10-09T07:49:10.697Z,102476.50
2022-10-09T07:51:38.707Z,102486.59
2022-10-09T07:54:06.853Z,102479.75
2022-10-09T07:56:37.915Z,102476.56
2022-10-09T07:59:08.341Z,102476.16
2022-10-09T08:01:37.359Z,102471.13
2022-10-09T08:04:07.258Z,102474.66
2022-10-09T08:06:35.913Z,102479.75
2022-10-09T08:09:06.657Z,102476.00
2022-10-09T08:11:35.272Z,102476.75
2022-10-09T08:14:03.495Z,102478.03
2022-10-09T08:16:33.009Z,102485.09
2022-10-09T08:19:02.170Z,102481.94
2022-10-09T08:21:32.976Z,102479.22
2022-10-09T08:24:01.618Z,102484.28
2022-10-09T08:26:31.922Z,102483.53
2022-10-09T08:29:02.044Z,102482.25
2022-10-09T08:31:31.796Z,102482.44
2022-10-09T08:34:02.736Z,102483.13
2022-10-09T08:36:32.829Z,102487.16
2022-10-09T08:39:01.021Z,102487.19
2022-10-09T08:41:41.987Z,102476.47
2022-10-09T08:44:18.157Z,102476.16
2022-10-09T08:46:57.331Z,102479.63
2022-10-09T08:49:31.137Z,102472.47
2022-10-09T08:52:12.786Z,102473.06
2022-10-09T08:54:41.989Z,102476.69
2022-10-09T08:57:14.888Z,102471.75
2022-10-09T08:59:43.512Z,102472.31
2022-10-09T09:02:31.295Z,102461.66
2022-10-09T09:05:20.875Z,102461.38
2022-10-09T09:07:57.296Z,102464.38
2022-10-09T09:10:38.344Z,102473.84
2022-10-09T09:13:18.424Z,102468.97
2022-10-09T09:15:51.772Z,102474.72
2022-10-09T09:18:40.708Z,102466.25
2022-10-09T09:21:18.463Z,102467.56
2022-10-09T09:23:48.876Z,102464.69
2022-10-09T09:26:20.285Z,102456.94
2022-10-09T09:28:52.562Z,102452.19
2022-10-09T09:31:25.024Z,102457.81
2022-10-09T09:33:59.461Z,102454.63
2022-10-09T09:36:33.031Z,102449.16
2022-10-09T09:41:50.586Z,102439.97
2022-10-09T09:44:18.748Z,102452.06
2022-10-09T09:46:48.917Z,102440.38
2022-10-09T09:49:18.310Z,102436.94
2022-10-09T09:51:46.988Z,102441.56
2022-10-09T09:54:20.282Z,102436.22
2022-10-09T09:59:39.961Z,102432.03
2022-10-09T10:02:15.498Z,102420.88
2022-10-09T10:04:52.164Z,102423.31
2022-10-09T10:07:30.767Z,102424.72
2022-10-09T10:10:09.081Z,102424.72
2022-10-09T10:12:41.724Z,102415.38
2022-10-09T10:15:20.053Z,102420.56
2022-10-09T10:17:49.856Z,102420.41
2022-10-09T10:20:19.062Z,102416.78
2022-10-09T10:22:53.222Z,102423.41
2022-10-09T10:25:26.904Z,102412.34
2022-10-09T10:28:01.741Z,102416.22
2022-10-09T10:30:30.239Z,102410.88
2022-10-09T10:33:02.982Z,102404.13
2022-10-09T10:35:35.831Z,102408.38
2022-10-09T10:38:06.888Z,102405.94
2022-10-09T10:40:39.062Z,102396.28
2022-10-09T10:43:16.865Z,102393.03
2022-10-09T10:45:59.404Z,102392.00
2022-10-09T10:48:30.556Z,102387.88
2022-10-09T10:51:09.560Z,102381.31
2022-10-09T10:53:50.364Z,102374.13
2022-10-09T10:56:27.487Z,102370.66
2022-10-09T10:59:05.850Z,102360.88
2022-10-09T11:01:45.438Z,102368.22
2022-10-09T11:04:35.696Z,102368.84
2022-10-09T11:07:16.927Z,102362.13
2022-10-09T11:09:53.301Z,102361.69
2022-10-09T11:12:47.403Z,102360.00
2022-10-09T11:15:24.572Z,102343.25
2022-10-09T11:17:59.503Z,102343.19
2022-10-09T11:20:59.259Z,102351.69
2022-10-09T11:23:37.122Z,102342.81
2022-10-09T11:26:12.805Z,102345.28
2022-10-09T11:28:46.998Z,102340.63
2022-10-09T11:31:18.571Z,102338.56
2022-10-09T11:33:49.951Z,102326.88
2022-10-09T11:36:22.401Z,102333.47
2022-10-09T11:38:54.286Z,102325.38
2022-10-09T11:41:22.621Z,102331.72
2022-10-09T11:44:17.917Z,102309.13
2022-10-09T11:46:51.544Z,102315.09
2022-10-09T11:49:26.890Z,102304.66
2022-10-09T11:52:01.201Z,102301.47
2022-10-09T11:54:30.257Z,102300.78
2022-10-09T11:57:00.369Z,102300.56
2022-10-09T11:59:31.352Z,102300.19
2022-10-09T12:02:01.289Z,102291.56
2022-10-09T12:04:50.470Z,102285.78
2022-10-09T12:07:33.134Z,102278.97
2022-10-09T12:10:06.319Z,102276.59
2022-10-09T12:12:35.252Z,102269.41
2022-10-09T12:15:24.421Z,102266.34
2022-10-09T12:17:52.361Z,102257.66
2022-10-09T12:20:24.455Z,102253.56
2022-10-09T12:23:24.653Z,102244.34
2022-10-09T12:25:46.898Z,102244.59
2022-10-09T12:28:26.922Z,102238.56
2022-10-09T12:31:00.195Z,102234.09
2022-10-09T12:33:31.943Z,102226.97
2022-10-09T12:36:03.623Z,102225.31
2022-10-09T12:38:33.764Z,102220.69
2022-10-09T12:41:05.764Z,102217.03
2022-10-09T12:43:36.277Z,102217.91
2022-10-09T12:46:05.935Z,102201.25
2022-10-09T12:48:40.118Z,102187.13
2022-10-09T12:51:16.619Z,102195.03
2022-10-09T12:53:49.545Z,102194.16
2022-10-09T12:56:22.790Z,102184.88
2022-10-09T12:58:51.875Z,102174.03
2022-10-09T13:01:21.822Z,102171.44
2022-10-09T13:03:58.707Z,102167.75
2022-10-09T13:06:28.843Z,102168.22
2022-10-09T13:08:59.209Z,102151.53
2022-10-09T13:11:33.272Z,102152.41
2022-10-09T13:14:01.961Z,102150.31
2022-10-09T13:16:41.906Z,102141.09
2022-10-09T13:19:24.411Z,102138.06
2022-10-09T13:22:17.180Z,102134.34
2022-10-09T13:24:45.521Z,102125.13
2022-10-09T13:27:15.005Z,102124.53
2022-10-09T13:29:43.669Z,102114.41
2022-10-09T13:32:15.525Z,102117.16
2022-10-09T13:34:44.422Z,102102.03
2022-10-09T13:37:14.189Z,102100.34
2022-10-09T13:39:43.107Z,102097.25
2022-10-09T13:42:12.932Z,102087.88
2022-10-09T13:44:41.267Z,102081.91
2022-10-09T13:47:09.315Z,102077.97
2022-10-09T13:49:38.849Z,102076.94
2022-10-09T13:52:07.365Z,102068.91
2022-10-09T13:54:35.550Z,102066.56
2022-10-09T13:57:04.000Z,102063.41
2022-10-09T13:59:32.563Z,102058.78
2022-10-09T14:02:01.610Z,102057.09
2022-10-09T14:04:30.421Z,102054.88
2022-10-09T14:06:59.836Z,102050.22
2022-10-09T14:09:28.085Z,102045.59
2022-10-09T14:11:56.348Z,102044.66
2022-10-09T14:14:24.993Z,102033.00
2022-10-09T14:16:53.406Z,102037.50
2022-10-09T14:19:26.540Z,102039.19
2022-10-09T14:21:55.639Z,102030.38
2022-10-09T14:24:26.617Z,102037.59
2022-10-09T14:26:54.839Z,102027.13
2022-10-09T14:29:23.029Z,102030.41
2022-10-09T14:31:51.950Z,102022.63
2022-10-09T14:34:19.933Z,102010.97
2022-10-09T14:36:48.865Z,102021.44
2022-10-09T14:39:17.411Z,102016.94
2022-10-09T14:41:46.952Z,102008.03
2022-10-09T14:44:15.489Z,102000.69
2022-10-09T14:46:43.400Z,101997.56
2022-10-09T14:49:11.552Z,101989.53
2022-10-09T14:51:41.048Z,101981.91
2022-10-09T14:54:10.246Z,101985.44
2022-10-09T14:56:38.260Z,101979.44
2022-10-09T14:59:07.746Z,101976.06
2022-10-09T15:01:36.514Z,101964.94
2022-10-09T15:04:05.442Z,101968.25
2022-10-09T15:06:34.084Z,101976.06
2022-10-09T15:09:05.504Z,101970.91
2022-10-09T15:11:35.471Z,101969.06
2022-10-09T15:14:04.085Z,101962.78
2022-10-09T15:16:33.490Z,101954.50
2022-10-09T15:19:01.697Z,101948.44
2022-10-09T15:21:31.601Z,101945.50
2022-10-09T15:24:01.269Z,101952.16
2022-10-09T15:26:32.877Z,101944.78
2022-10-09T15:29:02.531Z,101934.59
2022-10-09T15:31:31.941Z,101934.47
2022-10-09T15:34:02.293Z,101927.28
2022-10-09T15:36:30.813Z,101921.34
2022-10-09T15:39:02.934Z,101926.00
2022-10-09T15:41:32.920Z,101916.25
2022-10-09T15:44:03.007Z,101918.16
2022-10-09T15:46:32.127Z,101920.91
2022-10-09T15:49:01.661Z,101910.53
2022-10-09T15:51:31.575Z,101920.59
2022-10-09T15:54:01.263Z,101916.56
2022-10-09T15:56:30.154Z,101913.56
2022-10-09T15:58:59.136Z,101910.81
2022-10-09T16:01:27.602Z,101902.91
2022-10-09T16:03:55.684Z,101907.03
2022-10-09T16:06:25.047Z,101896.56
2022-10-09T16:08:57.257Z,101898.94
2022-10-09T16:11:26.732Z,101888.97
2022-10-09T16:13:57.295Z,101888.03
2022-10-09T16:16:27.516Z,101886.63
2022-10-09T16:18:56.390Z,101876.16
2022-10-09T16:21:28.053Z,101879.34
2022-10-09T16:23:59.144Z,101883.09
2022-10-09T16:26:30.186Z,101877.75
2022-10-09T16:28:58.417Z,101880.88
2022-10-09T16:31:29.001Z,101883.19
2022-10-09T16:33:57.161Z,101873.78
2022-10-09T16:36:26.718Z,101871.88
2022-10-09T16:38:55.250Z,101873.91
2022-10-09T16:41:24.073Z,101876.50
2022-10-09T16:43:55.169Z,101872.88
2022-10-09T16:46:28.699Z,101874.44
2022-10-09T16:48:57.332Z,101869.66
2022-10-09T16:51:28.808Z,101870.00
2022-10-09T16:53:59.535Z,101866.81
2022-10-09T16:56:33.177Z,101871.94
2022-10-09T16:59:03.374Z,101868.81
2022-10-09T17:01:32.217Z,101866.63
2022-10-09T17:04:01.481Z,101869.19
2022-10-09T17:06:31.417Z,101872.31
2022-10-09T17:09:00.259Z,101868.53
2022-10-09T17:11:32.506Z,101876.66
2022-10-09T17:14:00.637Z,101867.91
2022-10-09T17:16:31.167Z,101871.69
2022-10-09T17:18:59.696Z,101866.00
2022-10-09T17:21:32.854Z,101872.41
2022-10-09T17:24:06.143Z,101870.03
2022-10-09T17:26:34.477Z,101871.28
2022-10-09T17:29:03.376Z,101873.88
2022-10-09T17:31:32.063Z,101873.00
2022-10-09T17:34:01.919Z,101873.38
2022-10-09T17:36:32.838Z,101878.38
2022-10-09T17:39:00.726Z,101873.38
2022-10-09T17:41:30.659Z,101876.16
2022-10-09T17:43:59.339Z,101873.28
2022-10-09T17:46:29.141Z,101870.34
2022-10-09T17:48:58.339Z,101881.34
2022-10-09T17:51:28.428Z,101872.75
2022-10-09T17:54:01.028Z,101868.47
2022-10-09T17:56:31.481Z,101866.75
2022-10-09T17:59:00.163Z,101864.66
2022-10-09T18:01:28.614Z,101870.00
2022-10-09T18:03:57.335Z,101859.34
2022-10-09T18:06:25.520Z,101856.25
2022-10-09T18:08:55.606Z,101859.38
2022-10-09T18:11:25.551Z,101858.72
2022-10-09T18:13:55.445Z,101852.56
2022-10-09T18:16:35.403Z,101852.56
2022-10-09T18:19:06.033Z,101846.91
2022-10-09T18:21:35.198Z,101841.75
2022-10-09T18:24:03.106Z,101832.81
2022-10-09T18:26:31.036Z,101835.56
2022-10-09T18:29:01.686Z,101832.81
2022-10-09T18:31:30.178Z,101830.97
2022-10-09T18:33:59.677Z,101832.16
2022-10-09T18:36:31.888Z,101830.44
2022-10-09T18:39:02.268Z,101821.53
2022-10-09T18:41:30.511Z,101818.44
2022-10-09T18:44:01.387Z,101822.34
2022-10-09T18:46:35.181Z,101814.47
2022-10-09T18:49:03.353Z,101810.34
2022-10-09T18:51:32.196Z,101809.03
2022-10-09T18:54:03.675Z,101809.19
2022-10-09T18:56:33.259Z,101800.94
2022-10-09T18:59:06.603Z,101801.66
2022-10-09T19:01:35.622Z,101794.94
2022-10-09T19:04:03.521Z,101797.38
2022-10-09T19:06:31.629Z,101797.91
2022-10-09T19:09:00.823Z,101793.44
2022-10-09T19:11:29.925Z,101784.88
2022-10-09T19:13:59.662Z,101784.53
2022-10-09T19:16:30.085Z,101778.53
2022-10-09T19:18:57.928Z,101767.03
2022-10-09T19:21:26.188Z,101772.69
2022-10-09T19:23:55.493Z,101762.75
2022-10-09T19:26:24.144Z,101760.53
2022-10-09T19:28:52.069Z,101768.09
2022-10-09T19:31:20.065Z,101755.41
2022-10-09T19:33:49.278Z,101758.19
2022-10-09T19:36:17.097Z,101758.00
2022-10-09T19:38:45.417Z,101759.03
2022-10-09T19:41:16.010Z,101756.63
2022-10-09T19:43:44.176Z,101762.47
2022-10-09T19:46:17.195Z,101757.69
2022-10-09T19:48:46.033Z,101749.25
2022-10-09T19:51:18.429Z,101757.19
2022-10-09T19:53:46.870Z,101756.84
2022-10-09T19:56:17.233Z,101753.22
2022-10-09T19:58:46.559Z,101750.47
2022-10-09T20:01:16.692Z,101742.41
2022-10-09T20:03:45.279Z,101742.56
2022-10-09T20:06:13.574Z,101738.97
2022-10-09T20:08:45.181Z,101741.03
2022-10-09T20:11:13.936Z,101732.44
2022-10-09T20:13:43.564Z,101731.59
2022-10-09T20:16:14.057Z,101730.72
2022-10-09T20:18:43.290Z,101730.06
2022-10-09T20:21:12.354Z,101726.81
2022-10-09T20:23:40.490Z,101723.19
2022-10-09T20:26:13.377Z,101717.03
2022-10-09T20:28:41.653Z,101717.03
2022-10-09T20:31:14.601Z,101718.06
2022-10-09T20:33:43.109Z,101715.47
2022-10-09T20:36:19.695Z,101715.47
2022-10-09T20:38:48.679Z,101700.06
2022-10-09T20:41:18.815Z,101705.56
2022-10-09T20:43:51.477Z,101711.41
2022-10-09T20:46:21.140Z,101699.06
2022-10-09T20:48:49.142Z,101695.59
2022-10-09T20:51:17.320Z,101693.72
2022-10-09T20:53:45.799Z,101683.97
2022-10-09T20:56:15.431Z,101681.78
2022-10-09T20:58:44.656Z,101688.13
2022-10-09T21:01:14.219Z,101672.16
2022-10-09T21:03:42.819Z,101682.66
2022-10-09T21:06:12.952Z,101674.97
2022-10-09T21:08:40.974Z,101672.91
2022-10-09T21:11:11.839Z,101664.66
2022-10-09T21:13:41.814Z,101665.88
2022-10-09T21:16:13.044Z,101662.97
2022-10-09T21:18:41.748Z,101654.59
2022-10-09T21:21:11.711Z,101657.84
2022-10-09T21:23:40.157Z,101653.88
2022-10-09T21:26:12.105Z,101650.78
2022-10-09T21:28:40.635Z,101652.34
2022-10-09T21:31:11.325Z,101651.16
2022-10-09T21:33:39.719Z,101647.69
2022-10-09T21:36:11.572Z,101647.19
2022-10-09T21:38:39.596Z,101646.84
2022-10-09T21:41:07.778Z,101639.63
2022-10-09T21:43:36.074Z,101640.66
2022-10-09T21:46:04.174Z,101640.97
2022-10-09T21:48:33.579Z,101639.06
2022-10-09T21:51:01.652Z,101640.63
2022-10-09T21:53:30.708Z,101641.44
2022-10-09T21:55:58.830Z,101634.41
2022-10-09T21:58:26.803Z,101634.91
2022-10-09T22:00:58.395Z,101632.19
2022-10-09T22:03:27.297Z,101629.81
2022-10-09T22:05:57.050Z,101622.13
2022-10-09T22:08:25.897Z,101614.44
2022-10-09T22:10:53.843Z,101614.94
2022-10-09T22:13:23.218Z,101608.09
2022-10-09T22:15:51.565Z,101605.38
2022-10-09T22:18:20.394Z,101600.56
2022-10-09T22:20:51.036Z,101602.13
2022-10-09T22:23:22.414Z,101596.81
2022-10-09T22:25:57.717Z,101593.22
2022-10-09T22:28:26.176Z,101600.59
2022-10-09T22:31:06.046Z,101596.47
2022-10-09T22:33:36.481Z,101593.41
2022-10-09T22:36:07.723Z,101594.94
2022-10-09T22:38:38.276Z,101585.00
2022-10-09T22:41:09.080Z,101573.19
2022-10-09T22:43:38.118Z,101579.34
2022-10-09T22:46:08.982Z,101576.59
2022-10-09T22:48:37.469Z,101569.38
2022-10-09T22:51:07.666Z,101563.22
2022-10-09T22:53:38.037Z,101560.50
2022-10-09T22:56:07.806Z,101555.69
2022-10-09T22:58:35.805Z,101556.91
2022-10-09T23:01:06.749Z,101562.03
2022-10-09T23:03:34.626Z,101556.56
2022-10-09T23:06:07.570Z,101555.53
2022-10-09T23:08:37.982Z,101554.16
2022-10-09T23:11:06.261Z,101562.16
2022-10-09T23:13:34.457Z,101551.19
2022-10-09T23:16:03.239Z,101559.44
2022-10-09T23:18:31.345Z,101547.78
2022-10-09T23:20:59.499Z,101555.13
2022-10-09T23:23:29.050Z,101556.31
2022-10-09T23:25:58.525Z,101545.00
2022-10-09T23:28:27.690Z,101546.69
2022-10-09T23:31:01.939Z,101547.03
2022-10-09T23:33:29.876Z,101538.59
2022-10-09T23:35:57.759Z,101538.78
2022-10-09T23:38:26.047Z,101531.66
2022-10-09T23:40:59.593Z,101528.94
2022-10-09T23:43:28.802Z,101526.78
2022-10-09T23:45:58.656Z,101531.72
2022-10-09T23:48:27.511Z,101520.81
2022-10-09T23:50:56.290Z,101511.63
2022-10-09T23:53:26.412Z,101506.38
2022-10-09T23:55:54.984Z,101516.44
2022-10-09T23:58:24.542Z,101508.69
